createdAt,value
2022-11-22T00:00:39.018Z,99940.47
2022-11-22T00:03:05.915Z,99929.91
2022-11-22T00:05:32.702Z,99921.28
2022-11-22T00:08:00.719Z,99917.81
2022-11-22T00:10:27.536Z,99923.13
2022-11-22T00:12:54.668Z,99918.78
2022-11-22T00:15:21.389Z,99920.63
2022-11-22T00:17:49.030Z,99921.59
2022-11-22T00:20:15.893Z,99919.03
2022-11-22T00:22:44.734Z,99906.72
2022-11-22T00:25:11.805Z,99915.41
2022-11-22T00:27:41.710Z,99926.81
2022-11-22T00:30:09.128Z,99912.91
2022-11-22T00:32:35.843Z,99913.78
2022-11-22T00:35:03.007Z,99915.53
2022-11-22T00:37:29.693Z,99911.25
2022-11-22T00:39:56.371Z,99919.03
2022-11-22T00:42:23.110Z,99914.59
2022-11-22T00:44:49.806Z,99909.41
2022-11-22T00:47:16.506Z,99913.72
2022-11-22T00:49:43.125Z,99906.69
2022-11-22T00:52:09.974Z,99897.13
2022-11-22T00:54:36.724Z,99893.66
2022-11-22T00:57:03.486Z,99892.75
2022-11-22T00:59:30.557Z,99902.47
2022-11-22T01:01:57.575Z,99892.88
2022-11-22T01:04:24.265Z,99889.41
2022-11-22T01:06:51.009Z,99896.41
2022-11-22T01:09:20.652Z,99896.38
2022-11-22T01:11:47.771Z,99898.97
2022-11-22T01:14:15.137Z,99890.25
2022-11-22T01:16:41.879Z,99890.31
2022-11-22T01:19:08.824Z,99892.03
2022-11-22T01:21:35.428Z,99895.59
2022-11-22T01:24:02.136Z,99897.31
2022-11-22T01:26:28.886Z,99905.19
2022-11-22T01:28:56.615Z,99896.41
2022-11-22T01:31:23.313Z,99889.44
2022-11-22T01:33:49.988Z,99881.59
2022-11-22T01:36:16.703Z,99889.41
2022-11-22T01:38:43.379Z,99897.34
2022-11-22T01:41:10.071Z,99898.13
2022-11-22T01:43:39.938Z,99893.75
2022-11-22T01:46:10.324Z,99886.75
2022-11-22T01:48:47.394Z,99893.78
2022-11-22T01:51:27.597Z,99896.41
2022-11-22T01:53:57.370Z,99890.31
2022-11-22T01:56:24.740Z,99890.28
2022-11-22T01:58:56.672Z,99886.78
2022-11-22T02:01:29.777Z,99882.44
2022-11-22T02:04:00.830Z,99899.00
2022-11-22T02:06:34.744Z,99889.38
2022-11-22T02:09:09.402Z,99897.28
2022-11-22T02:11:39.158Z,99901.63
2022-11-22T02:14:09.611Z,99889.41
2022-11-22T02:16:37.464Z,99901.56
2022-11-22T02:19:05.268Z,99897.13
2022-11-22T02:21:31.973Z,99887.66
2022-11-22T02:24:07.804Z,99878.09
2022-11-22T02:26:34.554Z,99872.06
2022-11-22T02:29:04.865Z,99868.53
2022-11-22T02:31:35.622Z,99867.66
2022-11-22T02:34:02.398Z,99859.75
2022-11-22T02:36:30.580Z,99858.84
2022-11-22T02:38:57.296Z,99863.25
2022-11-22T02:41:24.181Z,99854.50
2022-11-22T02:43:51.002Z,99853.63
2022-11-22T02:46:27.029Z,99846.69
2022-11-22T02:48:53.745Z,99858.00
2022-11-22T02:51:20.672Z,99847.47
2022-11-22T02:53:49.335Z,99852.69
2022-11-22T02:56:16.743Z,99853.56
2022-11-22T02:58:44.107Z,99842.34
2022-11-22T03:01:11.939Z,99841.44
2022-11-22T03:03:38.708Z,99830.94
2022-11-22T03:06:05.471Z,99828.34
2022-11-22T03:08:33.486Z,99826.63
2022-11-22T03:11:00.594Z,99823.28
2022-11-22T03:13:27.320Z,99829.41
2022-11-22T03:15:54.050Z,99829.38
2022-11-22T03:18:20.784Z,99824.13
2022-11-22T03:20:47.416Z,99824.22
2022-11-22T03:23:14.054Z,99830.25
2022-11-22T03:25:40.713Z,99831.09
2022-11-22T03:28:07.859Z,99826.72
2022-11-22T03:30:34.659Z,99828.47
2022-11-22T03:33:04.364Z,99823.31
2022-11-22T03:35:31.189Z,99820.78
2022-11-22T03:37:57.868Z,99825.06
2022-11-22T03:40:25.535Z,99821.56
2022-11-22T03:42:52.197Z,99825.91
2022-11-22T03:45:18.902Z,99819.78
2022-11-22T03:47:45.539Z,99815.44
2022-11-22T03:50:12.253Z,99806.75
2022-11-22T03:52:38.952Z,99809.44
2022-11-22T03:55:05.657Z,99811.13
2022-11-22T03:57:32.342Z,99808.47
2022-11-22T03:59:59.007Z,99805.81
2022-11-22T04:02:25.731Z,99799.69
2022-11-22T04:04:52.453Z,99795.38
2022-11-22T04:07:19.117Z,99799.75
2022-11-22T04:09:45.787Z,99804.91
2022-11-22T04:12:12.511Z,99800.50
2022-11-22T04:14:57.783Z,99804.88
2022-11-22T04:17:45.151Z,99801.47
2022-11-22T04:20:45.621Z,99810.19
2022-11-22T04:23:14.588Z,99795.44
2022-11-22T04:25:43.832Z,99809.44
2022-11-22T04:28:11.687Z,99806.75
2022-11-22T04:30:56.947Z,99814.56
2022-11-22T04:33:23.806Z,99804.97
2022-11-22T04:35:51.146Z,99807.66
2022-11-22T04:38:18.299Z,99797.16
2022-11-22T04:40:45.240Z,99797.16
2022-11-22T04:43:41.091Z,99792.81
2022-11-22T04:46:08.306Z,99790.19
2022-11-22T04:48:35.254Z,99784.13
2022-11-22T04:51:21.168Z,99786.81
2022-11-22T04:53:47.950Z,99782.44
2022-11-22T04:56:18.087Z,99781.56
2022-11-22T04:58:44.759Z,99774.47
2022-11-22T05:01:11.489Z,99780.59
2022-11-22T05:03:38.161Z,99764.91
2022-11-22T05:06:05.695Z,99771.03
2022-11-22T05:08:32.813Z,99778.06
2022-11-22T05:10:59.934Z,99779.78
2022-11-22T05:13:28.287Z,99790.19
2022-11-22T05:15:55.535Z,99786.69
2022-11-22T05:18:23.144Z,99784.97
2022-11-22T05:20:50.272Z,99777.94
2022-11-22T05:23:36.111Z,99784.88
2022-11-22T05:26:02.745Z,99781.41
2022-11-22T05:28:31.094Z,99786.69
2022-11-22T05:30:57.772Z,99797.22
2022-11-22T05:33:24.524Z,99788.41
2022-11-22T05:35:51.590Z,99778.69
2022-11-22T05:38:18.378Z,99777.78
2022-11-22T05:40:45.184Z,99787.38
2022-11-22T05:43:11.844Z,99797.84
2022-11-22T05:45:38.678Z,99788.25
2022-11-22T05:48:05.490Z,99803.91
2022-11-22T05:50:32.235Z,99800.50
2022-11-22T05:53:03.225Z,99804.06
2022-11-22T05:55:30.859Z,99803.13
2022-11-22T05:58:01.599Z,99805.75
2022-11-22T06:00:29.971Z,99815.34
2022-11-22T06:03:01.722Z,99813.56
2022-11-22T06:05:29.113Z,99804.00
2022-11-22T06:08:03.104Z,99803.22
2022-11-22T06:10:29.977Z,99811.00
2022-11-22T06:12:56.752Z,99804.00
2022-11-22T06:15:23.493Z,99811.81
2022-11-22T06:17:50.472Z,99807.50
2022-11-22T06:20:17.235Z,99818.00
2022-11-22T06:22:44.037Z,99808.38
2022-11-22T06:25:10.996Z,99816.16
2022-11-22T06:27:37.628Z,99818.72
2022-11-22T06:30:04.539Z,99817.81
2022-11-22T06:32:33.854Z,99824.81
2022-11-22T06:35:01.551Z,99821.34
2022-11-22T06:37:28.990Z,99826.53
2022-11-22T06:39:55.632Z,99819.53
2022-11-22T06:42:22.235Z,99826.56
2022-11-22T06:44:48.885Z,99836.06
2022-11-22T06:47:17.636Z,99837.84
2022-11-22T06:49:45.551Z,99843.06
2022-11-22T06:52:12.415Z,99851.84
2022-11-22T06:54:39.243Z,99846.50
2022-11-22T06:57:05.905Z,99839.53
2022-11-22T06:59:32.817Z,99837.78
2022-11-22T07:02:05.789Z,99840.44
2022-11-22T07:04:33.237Z,99846.50
2022-11-22T07:06:59.847Z,99835.16
2022-11-22T07:09:26.521Z,99842.13
2022-11-22T07:11:53.224Z,99850.78
2022-11-22T07:14:19.926Z,99845.59
2022-11-22T07:16:46.507Z,99851.59
2022-11-22T07:19:13.216Z,99851.59
2022-11-22T07:21:39.984Z,99854.25
2022-11-22T07:24:07.435Z,99858.59
2022-11-22T07:26:34.052Z,99866.41
2022-11-22T07:29:00.729Z,99862.03
2022-11-22T07:31:28.355Z,99868.28
2022-11-22T07:33:57.121Z,99860.38
2022-11-22T07:36:24.139Z,99861.06
2022-11-22T07:38:51.596Z,99857.63
2022-11-22T07:41:19.997Z,99841.03
2022-11-22T07:43:47.464Z,99835.84
2022-11-22T07:46:32.164Z,99840.19
2022-11-22T07:49:00.105Z,99834.94
2022-11-22T07:51:27.748Z,99832.38
2022-11-22T07:53:55.818Z,99821.81
2022-11-22T07:56:22.634Z,99820.91
2022-11-22T07:58:58.727Z,99812.19
2022-11-22T08:01:27.576Z,99810.47
2022-11-22T08:03:54.400Z,99797.41
2022-11-22T08:06:21.169Z,99801.72
2022-11-22T08:08:47.785Z,99797.38
2022-11-22T08:11:14.509Z,99802.53
2022-11-22T08:13:41.410Z,99813.94
2022-11-22T08:16:15.457Z,99806.00
2022-11-22T08:18:46.440Z,99797.34
2022-11-22T08:21:14.703Z,99805.09
2022-11-22T08:23:42.617Z,99800.78
2022-11-22T08:26:12.686Z,99793.88
2022-11-22T08:28:40.083Z,99812.09
2022-11-22T08:31:09.398Z,99803.19
2022-11-22T08:33:36.600Z,99797.94
2022-11-22T08:36:03.415Z,99811.19
2022-11-22T08:38:36.315Z,99809.50
2022-11-22T08:41:04.300Z,99832.06
2022-11-22T08:43:31.980Z,99840.91
2022-11-22T08:45:59.615Z,99835.66
2022-11-22T08:48:26.913Z,99834.78
2022-11-22T08:50:58.823Z,99835.53
2022-11-22T08:53:25.879Z,99827.63
2022-11-22T08:55:53.396Z,99831.16
2022-11-22T08:58:20.184Z,99844.25
2022-11-22T09:00:46.961Z,99844.19
2022-11-22T09:03:13.695Z,99851.19
2022-11-22T09:08:29.013Z,99848.66
2022-11-22T09:11:06.501Z,99853.91
2022-11-22T09:13:33.681Z,99857.38
2022-11-22T09:16:11.591Z,99853.84
2022-11-22T09:18:38.863Z,99861.03
2022-11-22T09:21:08.261Z,99859.28
2022-11-22T09:23:35.543Z,99856.59
2022-11-22T09:26:11.253Z,99850.41
2022-11-22T09:28:37.918Z,99858.22
2022-11-22T09:31:07.463Z,99850.31
2022-11-22T09:33:35.605Z,99853.78
2022-11-22T09:36:13.076Z,99864.19
2022-11-22T09:38:40.329Z,99863.22
2022-11-22T09:41:16.344Z,99871.94
2022-11-22T09:44:00.438Z,99869.28
2022-11-22T09:46:47.443Z,99885.00
2022-11-22T09:49:24.219Z,99883.00
2022-11-22T09:52:15.790Z,99882.19
2022-11-22T09:54:52.260Z,99887.47
2022-11-22T09:57:23.896Z,99887.56
2022-11-22T10:00:04.033Z,99884.06
2022-11-22T10:03:00.018Z,99886.59
2022-11-22T10:05:42.725Z,99891.84
2022-11-22T10:08:27.961Z,99888.34
2022-11-22T10:10:56.157Z,99882.97
2022-11-22T10:13:30.325Z,99881.91
2022-11-22T10:16:28.090Z,99887.06
2022-11-22T10:19:01.168Z,99880.97
2022-11-22T10:21:27.879Z,99883.59
2022-11-22T10:23:54.761Z,99887.16
2022-11-22T10:26:25.730Z,99881.88
2022-11-22T10:29:07.285Z,99883.59
2022-11-22T10:31:43.366Z,99887.16
2022-11-22T10:34:17.128Z,99892.41
2022-11-22T10:36:47.027Z,99883.41
2022-11-22T10:39:19.769Z,99889.44
2022-11-22T10:42:05.453Z,99889.44
2022-11-22T10:44:47.378Z,99889.50
2022-11-22T10:47:41.557Z,99875.44
2022-11-22T10:50:17.181Z,99884.16
2022-11-22T10:52:56.370Z,99876.75
2022-11-22T10:55:35.409Z,99873.25
2022-11-22T10:58:34.506Z,99875.97
2022-11-22T11:01:30.967Z,99874.13
2022-11-22T11:03:59.526Z,99878.44
2022-11-22T11:07:10.372Z,99873.06
2022-11-22T11:12:20.099Z,99861.56
2022-11-22T11:14:49.972Z,99852.94
2022-11-22T11:17:27.803Z,99856.34
2022-11-22T11:19:58.098Z,99854.53
2022-11-22T11:22:58.723Z,99848.41
2022-11-22T11:25:40.826Z,99857.03
2022-11-22T11:28:11.375Z,99850.03
2022-11-22T11:30:50.147Z,99848.34
2022-11-22T11:33:20.639Z,99845.06
2022-11-22T11:35:47.757Z,99850.22
2022-11-22T11:38:50.399Z,99845.81
2022-11-22T11:41:41.932Z,99842.31
2022-11-22T11:44:25.807Z,99851.72
2022-11-22T11:46:52.541Z,99845.03
2022-11-22T11:49:23.785Z,99854.25
2022-11-22T11:52:10.271Z,99873.69
2022-11-22T11:54:45.030Z,99863.78
2022-11-22T11:57:23.352Z,99863.81
2022-11-22T11:59:50.477Z,99868.34
2022-11-22T12:02:26.728Z,99873.56
2022-11-22T12:05:04.069Z,99868.22
2022-11-22T12:07:34.085Z,99866.53
2022-11-22T12:10:01.412Z,99856.84
2022-11-22T12:12:46.959Z,99864.63
2022-11-22T12:15:21.513Z,99862.69
2022-11-22T12:18:23.264Z,99856.00
2022-11-22T12:21:03.399Z,99846.88
2022-11-22T12:23:45.471Z,99837.25
2022-11-22T12:26:16.466Z,99832.75
2022-11-22T12:28:43.451Z,99822.31
2022-11-22T12:31:27.866Z,99816.13
2022-11-22T12:34:01.160Z,99831.94
2022-11-22T12:36:40.226Z,99834.47
2022-11-22T12:39:11.718Z,99835.19
2022-11-22T12:41:40.395Z,99831.69
2022-11-22T12:44:12.237Z,99843.09
2022-11-22T12:46:50.538Z,99842.25
2022-11-22T12:49:32.317Z,99834.13
2022-11-22T12:52:25.910Z,99831.59
2022-11-22T12:55:16.960Z,99834.34
2022-11-22T12:58:05.262Z,99832.31
2022-11-22T13:00:36.451Z,99830.66
2022-11-22T13:03:13.535Z,99824.59
2022-11-22T13:05:45.132Z,99819.41
2022-11-22T13:08:19.532Z,99818.41
2022-11-22T13:10:53.734Z,99810.41
2022-11-22T13:13:27.630Z,99817.28
2022-11-22T13:15:56.024Z,99805.94
2022-11-22T13:18:33.144Z,99808.69
2022-11-22T13:21:11.459Z,99801.69
2022-11-22T13:24:12.040Z,99807.84
2022-11-22T13:27:10.089Z,99810.28
2022-11-22T13:29:37.227Z,99829.56
2022-11-22T13:32:16.613Z,99830.38
2022-11-22T13:35:01.082Z,99827.56
2022-11-22T13:37:32.975Z,99821.34
2022-11-22T13:40:11.509Z,99827.47
2022-11-22T13:42:38.603Z,99820.38
2022-11-22T13:45:20.746Z,99821.41
2022-11-22T13:47:47.708Z,99823.19
2022-11-22T13:50:44.504Z,99827.03
2022-11-22T13:53:24.104Z,99825.91
2022-11-22T13:55:50.957Z,99814.50
2022-11-22T13:58:27.045Z,99825.94
2022-11-22T14:00:55.164Z,99824.00
2022-11-22T14:03:38.108Z,99819.50
2022-11-22T14:06:29.156Z,99813.56
2022-11-22T14:09:27.462Z,99817.06
2022-11-22T14:11:57.395Z,99815.97
2022-11-22T14:14:55.068Z,99823.72
2022-11-22T14:17:51.283Z,99825.81
2022-11-22T14:20:30.172Z,99830.06
2022-11-22T14:23:18.626Z,99822.91
2022-11-22T14:26:30.417Z,99829.16
2022-11-22T14:29:28.054Z,99814.13
2022-11-22T14:32:11.203Z,99823.28
2022-11-22T14:35:03.729Z,99835.38
2022-11-22T14:37:33.867Z,99830.88
2022-11-22T14:40:06.593Z,99834.34
2022-11-22T14:42:40.151Z,99824.53
2022-11-22T14:45:10.263Z,99829.69
2022-11-22T14:47:59.951Z,99836.66
2022-11-22T14:50:28.600Z,99833.38
2022-11-22T14:53:04.614Z,99823.59
2022-11-22T14:55:33.040Z,99837.69
2022-11-22T14:58:06.828Z,99827.34
2022-11-22T15:00:41.964Z,99822.72
2022-11-22T15:03:30.436Z,99815.00
2022-11-22T15:09:11.391Z,99829.91
2022-11-22T15:09:52.433Z,99826.34
2022-11-22T15:12:27.204Z,99832.44
2022-11-22T15:59:44.356Z,99858.75
2022-11-22T16:02:18.384Z,99844.91
2022-11-22T16:06:06.252Z,99852.56
2022-11-22T16:07:39.600Z,99845.59
2022-11-22T16:10:16.987Z,99843.84
2022-11-22T16:12:47.527Z,99838.31
2022-11-22T16:15:28.386Z,99834.69
2022-11-22T16:18:07.792Z,99838.28
2022-11-22T16:20:39.679Z,99853.50
2022-11-22T16:23:09.088Z,99848.13
2022-11-22T16:25:41.984Z,99859.38
2022-11-22T16:28:44.027Z,99860.47
2022-11-22T16:31:21.676Z,99871.94
2022-11-22T16:33:48.981Z,99863.25
2022-11-22T16:36:16.926Z,99868.38
2022-11-22T16:38:44.176Z,99867.56
2022-11-22T16:41:25.517Z,99872.16
2022-11-22T16:43:54.436Z,99881.59
2022-11-22T16:46:21.494Z,99875.50
2022-11-22T16:48:48.347Z,99880.72
2022-11-22T16:51:21.277Z,99890.44
2022-11-22T16:54:16.540Z,99896.50
2022-11-22T16:56:49.413Z,99890.44
2022-11-22T16:59:16.274Z,99902.13
2022-11-22T17:01:44.226Z,99893.97
2022-11-22T17:04:25.442Z,99899.41
2022-11-22T17:06:52.459Z,99902.09
2022-11-22T17:09:21.984Z,99901.94
2022-11-22T17:11:49.586Z,99901.09
2022-11-22T17:14:18.376Z,99903.63
2022-11-22T17:16:48.298Z,99905.19
2022-11-22T17:19:52.008Z,99914.97
2022-11-22T17:22:06.941Z,99916.78
2022-11-22T17:24:34.605Z,99916.97
2022-11-22T17:27:01.553Z,99928.19
2022-11-22T17:29:49.255Z,99930.00
2022-11-22T17:32:15.115Z,99915.81
2022-11-22T17:34:42.205Z,99929.00
2022-11-22T17:37:12.760Z,99923.56
2022-11-22T17:39:40.194Z,99924.59
2022-11-22T17:42:07.345Z,99925.41
2022-11-22T17:44:35.105Z,99934.44
2022-11-22T17:47:33.079Z,99940.50
2022-11-22T17:50:05.339Z,99933.31
2022-11-22T17:52:32.300Z,99926.25
2022-11-22T17:55:05.563Z,99937.03
2022-11-22T17:57:34.022Z,99936.69
2022-11-22T18:00:00.729Z,99948.16
2022-11-22T18:02:27.542Z,99942.16
2022-11-22T18:04:55.801Z,99950.06
2022-11-22T18:07:24.251Z,99954.28
2022-11-22T18:09:51.706Z,99949.09
2022-11-22T18:12:19.032Z,99956.44
2022-11-22T18:14:47.307Z,99959.69
2022-11-22T18:17:14.534Z,99954.44
2022-11-22T18:19:41.194Z,99958.03
2022-11-22T18:22:08.051Z,99956.22
2022-11-22T18:24:35.034Z,99956.94
2022-11-22T18:27:02.622Z,99952.47
2022-11-22T18:29:44.850Z,99953.69
2022-11-22T18:32:11.962Z,99953.72
2022-11-22T18:34:39.047Z,99960.81
2022-11-22T18:37:05.960Z,99962.78
2022-11-22T18:39:38.221Z,99959.81
2022-11-22T18:42:07.944Z,99958.81
2022-11-22T18:44:35.724Z,99961.34
2022-11-22T18:47:02.592Z,99959.81
2022-11-22T18:49:29.914Z,99964.97
2022-11-22T18:51:57.076Z,99964.22
2022-11-22T18:54:23.819Z,99959.91
2022-11-22T18:56:51.616Z,99963.72
2022-11-22T18:59:18.652Z,99958.34
2022-11-22T19:01:45.571Z,99954.00
2022-11-22T19:04:14.414Z,99958.56
2022-11-22T19:06:42.107Z,99958.28
2022-11-22T19:09:08.965Z,99971.28
2022-11-22T19:11:35.841Z,99973.19
2022-11-22T19:14:02.809Z,99974.06
2022-11-22T19:16:30.482Z,99982.09
2022-11-22T19:18:58.937Z,99983.63
2022-11-22T19:21:28.069Z,99980.03
2022-11-22T19:23:55.847Z,99993.38
2022-11-22T19:26:24.653Z,99995.78
2022-11-22T19:28:56.570Z,100000.19
2022-11-22T19:31:29.303Z,100002.09
2022-11-22T19:33:57.464Z,100003.78
2022-11-22T19:36:32.168Z,100007.97
2022-11-22T19:38:59.281Z,100003.75
2022-11-22T19:41:26.005Z,100009.19
2022-11-22T19:43:52.782Z,100001.97
2022-11-22T19:46:20.113Z,100002.69
2022-11-22T19:48:51.725Z,100008.09
2022-11-22T19:51:18.633Z,100000.31
2022-11-22T19:53:45.315Z,99999.38
2022-11-22T19:56:17.825Z,99993.28
2022-11-22T19:58:50.443Z,99995.72
2022-11-22T20:01:17.551Z,99996.47
2022-11-22T20:03:45.078Z,99988.44
2022-11-22T20:06:13.605Z,99986.78
2022-11-22T20:08:40.496Z,99992.06
2022-11-22T20:11:09.480Z,99999.22
2022-11-22T20:13:38.419Z,99999.19
2022-11-22T20:16:08.489Z,99999.31
2022-11-22T20:18:35.529Z,99993.91
2022-11-22T20:21:03.998Z,99995.66
2022-11-22T20:23:32.236Z,99999.47
2022-11-22T20:26:09.218Z,100006.50
2022-11-22T20:28:39.992Z,100004.56
2022-11-22T20:31:14.454Z,100005.22
2022-11-22T20:33:44.016Z,100010.47
2022-11-22T20:36:14.071Z,100015.91
2022-11-22T20:38:41.956Z,100015.03
2022-11-22T20:41:10.247Z,100003.63
2022-11-22T20:43:37.462Z,99993.31
2022-11-22T20:46:09.939Z,99994.09
2022-11-22T20:48:37.836Z,100001.88
2022-11-22T20:51:07.927Z,99993.81
2022-11-22T20:53:35.302Z,99995.53
2022-11-22T20:56:02.476Z,99999.22
2022-11-22T20:58:32.368Z,100003.50
2022-11-22T21:00:59.194Z,100008.00
2022-11-22T21:03:27.478Z,100002.69
2022-11-22T21:05:55.238Z,100005.44
2022-11-22T21:08:22.833Z,99998.59
2022-11-22T21:10:49.632Z,99995.91
2022-11-22T21:13:17.371Z,99998.53
2022-11-22T21:15:44.667Z,99999.19
2022-11-22T21:18:27.613Z,100010.09
2022-11-22T21:20:54.245Z,100017.84
2022-11-22T21:23:21.385Z,100011.91
2022-11-22T21:25:51.564Z,100013.50
2022-11-22T21:28:18.492Z,100017.50
2022-11-22T21:30:45.267Z,100012.81
2022-11-22T21:33:12.434Z,100012.72
2022-11-22T21:35:39.262Z,100013.59
2022-11-22T21:38:06.075Z,100015.00
2022-11-22T21:40:33.000Z,100015.09
2022-11-22T21:42:59.766Z,100022.81
2022-11-22T21:45:26.598Z,100021.81
2022-11-22T21:47:53.278Z,100014.69
2022-11-22T21:50:20.590Z,100019.19
2022-11-22T21:52:47.306Z,100020.97
2022-11-22T21:55:15.546Z,100017.38
2022-11-22T21:57:42.278Z,100020.91
2022-11-22T22:00:10.145Z,100020.13
2022-11-22T22:02:36.842Z,100019.19
2022-11-22T22:05:03.713Z,100015.75
2022-11-22T22:07:51.398Z,100016.56
2022-11-22T22:10:17.325Z,100010.53
2022-11-22T22:12:44.813Z,100007.03
2022-11-22T22:15:14.928Z,99998.38
2022-11-22T22:17:41.854Z,100000.34
2022-11-22T22:20:08.985Z,100003.09
2022-11-22T22:22:38.719Z,100012.78
2022-11-22T22:25:06.429Z,100013.63
2022-11-22T22:27:33.491Z,100021.59
2022-11-22T22:30:00.707Z,100029.34
2022-11-22T22:32:28.036Z,100028.66
2022-11-22T22:34:54.976Z,100023.44
2022-11-22T22:37:21.726Z,100030.31
2022-11-22T22:39:50.652Z,100032.25
2022-11-22T22:42:19.429Z,100023.47
2022-11-22T22:44:46.442Z,100025.13
2022-11-22T22:47:13.611Z,100027.09
2022-11-22T22:49:40.464Z,100027.06
2022-11-22T22:52:07.245Z,100032.28
2022-11-22T22:54:34.068Z,100028.97
2022-11-22T22:57:01.083Z,100023.78
2022-11-22T22:59:31.346Z,100020.97
2022-11-22T23:01:58.169Z,100026.31
2022-11-22T23:04:24.951Z,100022.00
2022-11-22T23:06:51.603Z,100026.16
2022-11-22T23:09:18.544Z,100019.09
2022-11-22T23:12:04.039Z,100040.31
2022-11-22T23:14:33.773Z,100029.44
2022-11-22T23:17:00.549Z,100026.81
2022-11-22T23:19:27.770Z,100025.84
2022-11-22T23:21:55.454Z,100022.50
2022-11-22T23:24:22.207Z,100023.38
2022-11-22T23:26:48.887Z,100021.66
2022-11-22T23:29:18.690Z,100022.56
2022-11-22T23:31:45.403Z,100030.56
2022-11-22T23:34:13.450Z,100027.00
2022-11-22T23:36:41.266Z,100026.31
2022-11-22T23:39:11.757Z,100031.56
2022-11-22T23:41:38.412Z,100024.44
2022-11-22T23:44:05.305Z,100033.19
2022-11-22T23:46:32.425Z,100022.53
2022-11-22T23:49:00.469Z,100023.31
2022-11-22T23:51:28.550Z,100028.09
2022-11-22T23:53:57.099Z,100029.59
2022-11-22T23:56:24.208Z,100022.59
2022-11-22T23:58:51.553Z,100015.59
